createdAt,value
2023-03-05T00:01:09.141Z,17.48
2023-03-05T00:03:38.853Z,17.98
2023-03-05T00:06:06.045Z,18.10
2023-03-05T00:08:32.988Z,26.20
2023-03-05T00:11:02.349Z,17.38
2023-03-05T00:13:29.342Z,19.10
2023-03-05T00:15:57.447Z,22.05
2023-03-05T00:18:24.689Z,15.02
2023-03-05T00:20:57.308Z,13.98
2023-03-05T00:23:23.976Z,14.13
2023-03-05T00:25:50.757Z,15.98
2023-03-05T00:28:17.386Z,17.70
2023-03-05T00:30:44.034Z,21.58
2023-03-05T00:33:12.853Z,16.90
2023-03-05T00:35:41.361Z,13.23
2023-03-05T00:38:08.384Z,13.57
2023-03-05T00:40:37.413Z,15.15
2023-03-05T00:43:04.575Z,17.05
2023-03-05T00:45:31.253Z,19.10
2023-03-05T00:47:58.044Z,14.82
2023-03-05T00:50:25.143Z,16.15
2023-03-05T00:52:52.025Z,18.33
2023-03-05T00:55:18.984Z,14.77
2023-03-05T00:57:45.945Z,18.27
2023-03-05T01:00:14.268Z,15.55
2023-03-05T01:02:41.286Z,17.70
2023-03-05T01:05:15.437Z,14.90
2023-03-05T01:07:42.195Z,14.77
2023-03-05T01:10:09.930Z,16.70
2023-03-05T01:12:36.623Z,17.80
2023-03-05T01:15:04.256Z,21.75
2023-03-05T01:17:30.850Z,21.30
2023-03-05T01:19:57.466Z,18.85
2023-03-05T01:22:24.167Z,18.58
2023-03-05T01:24:50.766Z,20.58
2023-03-05T01:27:17.418Z,19.63
2023-03-05T01:29:44.105Z,23.27
2023-03-05T01:32:10.792Z,22.35
2023-03-05T01:34:37.802Z,23.08
2023-03-05T01:37:04.524Z,27.65
2023-03-05T01:39:32.241Z,21.80
2023-03-05T01:41:59.098Z,27.85
2023-03-05T01:44:29.363Z,17.98
2023-03-05T01:46:56.386Z,16.55
2023-03-05T01:49:29.321Z,17.73
2023-03-05T01:52:01.270Z,17.65
2023-03-05T01:54:38.940Z,22.13
2023-03-05T01:57:10.758Z,14.63
2023-03-05T01:59:39.896Z,13.02
2023-03-05T02:02:08.100Z,15.18
2023-03-05T02:04:45.999Z,20.33
2023-03-05T02:07:13.668Z,17.63
2023-03-05T02:09:41.300Z,15.70
2023-03-05T02:12:10.332Z,19.73
2023-03-05T02:14:38.518Z,17.33
2023-03-05T02:17:05.883Z,17.63
2023-03-05T02:19:50.673Z,22.33
2023-03-05T02:22:19.012Z,19.00
2023-03-05T02:24:45.604Z,14.30
2023-03-05T02:27:13.655Z,18.15
2023-03-05T02:29:43.231Z,16.92
2023-03-05T02:32:09.921Z,15.70
2023-03-05T02:34:37.310Z,17.35
2023-03-05T02:37:05.067Z,15.98
2023-03-05T02:39:32.032Z,15.65
2023-03-05T02:41:58.808Z,16.05
2023-03-05T02:44:25.596Z,17.30
2023-03-05T02:46:52.286Z,15.73
2023-03-05T02:49:18.959Z,16.52
2023-03-05T02:51:45.652Z,17.48
2023-03-05T02:54:12.394Z,14.80
2023-03-05T02:56:39.572Z,17.35
2023-03-05T02:59:06.192Z,17.40
2023-03-05T03:01:32.822Z,16.38
2023-03-05T03:03:59.516Z,17.15
2023-03-05T03:06:26.359Z,16.95
2023-03-05T03:08:53.067Z,20.25
2023-03-05T03:11:21.302Z,21.35
2023-03-05T03:13:47.994Z,22.52
2023-03-05T03:16:15.900Z,18.17
2023-03-05T03:18:44.250Z,28.13
2023-03-05T03:21:20.077Z,27.40
2023-03-05T03:23:46.973Z,27.70
2023-03-05T03:26:13.609Z,32.83
2023-03-05T03:28:40.269Z,23.25
2023-03-05T03:31:07.154Z,27.85
2023-03-05T03:33:33.749Z,27.67
2023-03-05T03:36:00.504Z,25.65
2023-03-05T03:38:27.110Z,26.30
2023-03-05T03:40:53.683Z,23.23
2023-03-05T03:43:20.259Z,24.98
2023-03-05T03:45:47.000Z,25.08
2023-03-05T03:48:13.741Z,22.55
2023-03-05T03:50:41.463Z,24.35
2023-03-05T03:53:08.675Z,19.52
2023-03-05T03:55:35.533Z,19.10
2023-03-05T03:58:02.236Z,18.20
2023-03-05T04:00:28.867Z,21.25
2023-03-05T04:02:55.573Z,18.23
2023-03-05T04:05:22.206Z,18.90
2023-03-05T04:07:48.795Z,26.48
2023-03-05T04:10:15.438Z,18.27
2023-03-05T04:12:43.482Z,23.20
2023-03-05T04:15:10.692Z,18.40
2023-03-05T04:17:37.491Z,20.45
2023-03-05T04:20:06.093Z,20.75
2023-03-05T04:22:32.709Z,18.23
2023-03-05T04:24:59.481Z,14.60
2023-03-05T04:27:26.083Z,15.73
2023-03-05T04:29:52.671Z,20.85
2023-03-05T04:32:23.126Z,19.92
2023-03-05T04:34:49.922Z,22.08
2023-03-05T04:37:16.502Z,16.92
2023-03-05T04:39:43.676Z,17.70
2023-03-05T04:42:10.508Z,24.05
2023-03-05T04:44:37.122Z,18.10
2023-03-05T04:47:03.827Z,17.58
2023-03-05T04:49:30.446Z,17.52
2023-03-05T04:51:57.596Z,21.08
2023-03-05T04:54:24.935Z,16.65
2023-03-05T04:56:51.536Z,18.52
2023-03-05T04:59:18.180Z,19.33
2023-03-05T05:01:45.879Z,21.17
2023-03-05T05:04:12.530Z,14.30
2023-03-05T05:06:39.149Z,16.17
2023-03-05T05:09:05.755Z,26.58
2023-03-05T05:11:32.373Z,18.77
2023-03-05T05:13:58.955Z,16.67
2023-03-05T05:16:25.642Z,17.95
2023-03-05T05:18:52.379Z,18.25
2023-03-05T05:21:20.315Z,17.25
2023-03-05T05:23:47.135Z,17.02
2023-03-05T05:26:14.326Z,15.32
2023-03-05T05:28:43.355Z,16.38
2023-03-05T05:31:12.315Z,25.30
2023-03-05T05:33:39.065Z,22.90
2023-03-05T05:36:08.286Z,21.52
2023-03-05T05:38:35.373Z,15.77
2023-03-05T05:41:06.902Z,14.32
2023-03-05T05:43:33.814Z,18.23
2023-03-05T05:46:02.424Z,14.85
2023-03-05T05:48:31.449Z,17.58
2023-03-05T05:50:58.779Z,15.98
2023-03-05T05:53:26.097Z,21.52
2023-03-05T05:55:52.846Z,16.58
2023-03-05T05:58:19.581Z,17.98
2023-03-05T06:00:46.286Z,15.10
2023-03-05T06:03:13.007Z,19.88
2023-03-05T06:05:41.861Z,12.20
2023-03-05T06:08:09.380Z,15.27
2023-03-05T06:10:36.118Z,18.30
2023-03-05T06:13:02.755Z,16.85
2023-03-05T06:15:29.469Z,13.82
2023-03-05T06:17:56.085Z,21.77
2023-03-05T06:20:23.144Z,13.43
2023-03-05T06:22:49.753Z,16.48
2023-03-05T06:25:16.508Z,14.93
2023-03-05T06:27:43.164Z,18.10
2023-03-05T06:30:11.494Z,16.27
2023-03-05T06:32:38.295Z,16.77
2023-03-05T06:35:05.408Z,17.48
2023-03-05T06:37:32.030Z,18.95
2023-03-05T06:39:58.695Z,19.60
2023-03-05T06:42:25.307Z,14.73
2023-03-05T06:44:51.940Z,17.13
2023-03-05T06:47:18.532Z,11.75
2023-03-05T06:49:45.156Z,13.90
2023-03-05T06:52:12.719Z,14.98
2023-03-05T06:54:39.370Z,12.93
2023-03-05T06:57:05.997Z,15.52
2023-03-05T06:59:32.596Z,13.65
2023-03-05T07:02:00.249Z,12.07
2023-03-05T07:04:26.842Z,10.18
2023-03-05T07:06:53.528Z,16.33
2023-03-05T07:09:20.174Z,12.18
2023-03-05T07:11:46.851Z,11.30
2023-03-05T07:14:13.620Z,16.83
2023-03-05T07:16:40.287Z,14.38
2023-03-05T07:19:07.903Z,13.13
2023-03-05T07:21:37.424Z,11.70
2023-03-05T07:24:06.612Z,13.40
2023-03-05T07:26:33.632Z,17.55
2023-03-05T07:29:01.413Z,16.60
2023-03-05T07:31:30.991Z,15.43
2023-03-05T07:33:59.395Z,11.93
2023-03-05T07:36:27.266Z,10.48
2023-03-05T07:38:54.344Z,11.60
2023-03-05T07:41:23.393Z,11.70
2023-03-05T07:43:52.334Z,9.32
2023-03-05T07:46:20.761Z,17.55
2023-03-05T07:48:47.521Z,14.82
2023-03-05T07:51:17.256Z,10.63
2023-03-05T07:53:45.737Z,15.40
2023-03-05T07:56:12.675Z,19.88
2023-03-05T07:58:39.477Z,11.40
2023-03-05T08:01:13.977Z,10.38
2023-03-05T08:03:41.827Z,16.17
2023-03-05T08:06:09.881Z,12.23
2023-03-05T08:08:36.998Z,11.63
2023-03-05T08:11:09.237Z,15.40
2023-03-05T08:13:36.423Z,14.00
2023-03-05T08:16:08.515Z,12.70
2023-03-05T08:18:35.476Z,12.75
2023-03-05T08:21:02.239Z,12.60
2023-03-05T08:23:29.499Z,14.48
2023-03-05T08:25:56.233Z,16.75
2023-03-05T08:28:26.122Z,12.73
2023-03-05T08:30:52.937Z,13.50
2023-03-05T08:33:19.646Z,15.13
2023-03-05T08:35:46.361Z,13.45
2023-03-05T08:38:13.569Z,14.60
2023-03-05T08:40:40.273Z,16.83
2023-03-05T08:43:07.234Z,17.00
2023-03-05T08:45:33.929Z,19.38
2023-03-05T08:48:00.607Z,17.50
2023-03-05T08:50:27.332Z,16.48
2023-03-05T08:52:53.992Z,15.70
2023-03-05T08:55:20.598Z,14.63
2023-03-05T08:57:47.447Z,15.88
2023-03-05T09:00:14.463Z,15.90
2023-03-05T09:02:41.210Z,13.95
2023-03-05T09:05:10.286Z,15.30
2023-03-05T09:07:37.848Z,15.85
2023-03-05T09:10:06.001Z,14.27
2023-03-05T09:12:32.630Z,14.57
2023-03-05T09:14:59.249Z,15.73
2023-03-05T09:17:25.812Z,15.80
2023-03-05T09:19:52.616Z,16.10
2023-03-05T09:22:19.207Z,18.43
2023-03-05T09:24:45.912Z,15.50
2023-03-05T09:27:12.569Z,17.37
2023-03-05T09:29:41.298Z,19.93
2023-03-05T09:32:09.483Z,12.93
2023-03-05T09:34:36.202Z,14.77
2023-03-05T09:37:03.867Z,14.13
2023-03-05T09:39:32.562Z,12.93
2023-03-05T09:42:20.674Z,14.32
2023-03-05T09:45:10.868Z,12.00
2023-03-05T09:48:06.871Z,14.65
2023-03-05T09:50:41.829Z,12.18
2023-03-05T09:53:24.015Z,12.52
2023-03-05T09:55:53.542Z,10.10
2023-03-05T09:58:37.166Z,12.75
2023-03-05T10:01:14.018Z,12.50
2023-03-05T10:03:49.711Z,14.75
2023-03-05T10:06:39.147Z,11.65
2023-03-05T10:09:11.760Z,15.63
2023-03-05T10:12:10.875Z,12.32
2023-03-05T10:14:40.344Z,11.77
2023-03-05T10:17:31.655Z,14.95
2023-03-05T10:19:58.488Z,15.05
2023-03-05T10:22:26.787Z,10.32
2023-03-05T10:25:17.694Z,12.75
2023-03-05T10:27:56.417Z,11.95
2023-03-05T10:31:05.508Z,18.55
2023-03-05T10:33:54.489Z,9.93
2023-03-05T10:36:44.882Z,9.93
2023-03-05T10:39:52.273Z,12.13
2023-03-05T10:42:33.966Z,10.52
2023-03-05T10:45:14.061Z,11.25
2023-03-05T10:47:55.404Z,14.30
2023-03-05T10:50:25.302Z,9.48
2023-03-05T10:53:13.962Z,12.53
2023-03-05T10:55:41.610Z,9.90
2023-03-05T10:58:17.182Z,14.43
2023-03-05T11:01:05.886Z,12.57
2023-03-05T11:04:05.594Z,13.45
2023-03-05T11:06:37.436Z,15.87
2023-03-05T11:09:24.247Z,14.33
2023-03-05T11:12:13.724Z,12.85
2023-03-05T11:14:47.605Z,16.70
2023-03-05T11:17:27.463Z,12.93
2023-03-05T11:19:55.601Z,13.52
2023-03-05T11:22:24.949Z,18.60
2023-03-05T11:25:21.350Z,12.18
2023-03-05T11:27:55.421Z,13.45
2023-03-05T11:30:36.626Z,12.80
2023-03-05T11:33:20.384Z,14.05
2023-03-05T11:35:49.390Z,12.93
2023-03-05T11:38:27.366Z,13.82
2023-03-05T11:40:56.403Z,16.77
2023-03-05T11:43:25.501Z,15.65
2023-03-05T11:45:59.157Z,12.93
2023-03-05T11:48:34.558Z,13.55
2023-03-05T11:51:05.496Z,11.90
2023-03-05T11:53:35.889Z,16.80
2023-03-05T11:56:19.640Z,15.60
2023-03-05T11:59:07.706Z,14.68
2023-03-05T12:01:44.686Z,12.52
2023-03-05T12:04:11.766Z,12.88
2023-03-05T12:06:44.588Z,14.88
2023-03-05T12:09:20.532Z,15.68
2023-03-05T12:11:51.400Z,14.45
2023-03-05T12:14:32.827Z,14.10
2023-03-05T12:17:31.545Z,13.27
2023-03-05T12:20:07.023Z,13.65
2023-03-05T12:22:39.767Z,15.88
2023-03-05T12:25:25.367Z,17.98
2023-03-05T12:27:52.004Z,12.32
2023-03-05T12:30:42.294Z,11.88
2023-03-05T12:33:37.077Z,18.55
2023-03-05T12:36:22.242Z,14.50
2023-03-05T12:38:56.668Z,15.43
2023-03-05T12:41:23.190Z,13.60
2023-03-05T12:44:05.010Z,14.23
2023-03-05T12:46:39.830Z,14.55
2023-03-05T12:49:18.964Z,12.45
2023-03-05T12:51:51.010Z,12.48
2023-03-05T12:54:34.352Z,14.55
2023-03-05T12:57:22.743Z,12.20
2023-03-05T13:00:05.198Z,18.17
2023-03-05T13:02:36.597Z,11.93
2023-03-05T13:05:14.065Z,10.88
2023-03-05T13:07:40.730Z,13.95
2023-03-05T13:10:20.874Z,10.27
2023-03-05T13:12:53.444Z,16.20
2023-03-05T13:15:21.835Z,12.00
2023-03-05T13:18:03.410Z,12.35
2023-03-05T13:20:38.391Z,13.55
2023-03-05T13:23:07.708Z,12.55
2023-03-05T13:25:34.518Z,11.80
2023-03-05T13:28:12.776Z,12.38
2023-03-05T13:30:39.592Z,14.57
2023-03-05T13:33:14.190Z,13.75
2023-03-05T13:35:46.256Z,13.30
2023-03-05T13:38:36.904Z,13.18
2023-03-05T13:41:05.113Z,12.63
2023-03-05T13:43:32.095Z,15.05
2023-03-05T13:45:59.399Z,13.90
2023-03-05T13:48:28.313Z,15.38
2023-03-05T13:50:58.789Z,13.90
2023-03-05T13:53:29.652Z,17.60
2023-03-05T13:56:05.885Z,14.65
2023-03-05T13:58:48.955Z,17.92
2023-03-05T14:01:43.752Z,13.70
2023-03-05T14:04:13.349Z,14.57
2023-03-05T14:07:17.732Z,14.05
2023-03-05T14:09:47.707Z,13.20
2023-03-05T14:12:30.390Z,14.40
2023-03-05T14:14:59.397Z,14.48
2023-03-05T14:17:43.681Z,15.10
2023-03-05T14:20:23.040Z,14.77
2023-03-05T14:22:52.999Z,14.02
2023-03-05T14:25:29.344Z,15.80
2023-03-05T14:27:57.425Z,16.38
2023-03-05T14:30:25.469Z,14.80
2023-03-05T14:32:55.350Z,16.75
2023-03-05T14:35:25.697Z,15.07
2023-03-05T14:37:54.587Z,14.52
2023-03-05T14:40:33.971Z,15.10
2023-03-05T14:43:05.813Z,20.25
2023-03-05T14:45:36.701Z,16.63
2023-03-05T14:48:05.559Z,14.45
2023-03-05T14:50:43.327Z,16.27
2023-03-05T14:53:15.450Z,14.23
2023-03-05T14:55:48.787Z,15.25
2023-03-05T14:58:18.415Z,17.30
2023-03-05T15:00:45.554Z,17.67
2023-03-05T15:03:13.853Z,18.98
2023-03-05T15:05:41.390Z,18.88
2023-03-05T15:08:18.376Z,16.90
2023-03-05T15:10:45.040Z,17.05
2023-03-05T15:13:14.437Z,20.10
2023-03-05T15:15:43.324Z,17.73
2023-03-05T15:18:13.282Z,18.58
2023-03-05T15:20:40.677Z,15.32
2023-03-05T15:23:07.764Z,17.83
2023-03-05T15:25:35.141Z,18.83
2023-03-05T15:28:20.268Z,14.45
2023-03-05T15:30:47.559Z,13.40
2023-03-05T15:33:16.211Z,19.38
2023-03-05T15:35:44.286Z,14.07
2023-03-05T15:38:10.932Z,13.98
2023-03-05T15:40:37.539Z,12.95
2023-03-05T15:43:06.354Z,13.93
2023-03-05T15:45:32.993Z,18.25
2023-03-05T15:47:59.740Z,21.15
2023-03-05T15:50:27.871Z,15.48
2023-03-05T15:52:54.592Z,15.30
2023-03-05T15:55:23.538Z,12.90
2023-03-05T15:57:52.400Z,12.90
2023-03-05T16:00:31.417Z,17.00
2023-03-05T16:02:58.331Z,12.38
2023-03-05T16:05:25.172Z,13.85
2023-03-05T16:07:53.272Z,15.32
2023-03-05T16:10:23.988Z,14.10
2023-03-05T16:12:54.843Z,15.18
2023-03-05T16:15:22.213Z,14.05
2023-03-05T16:17:53.022Z,18.67
2023-03-05T16:20:20.308Z,14.05
2023-03-05T16:22:47.107Z,14.85
2023-03-05T16:25:13.890Z,17.08
2023-03-05T16:27:40.519Z,15.45
2023-03-05T16:30:07.889Z,15.23
2023-03-05T16:32:34.593Z,13.40
2023-03-05T16:35:02.414Z,15.50
2023-03-05T16:37:29.722Z,12.98
2023-03-05T16:39:59.322Z,14.65
2023-03-05T16:42:26.039Z,17.50
2023-03-05T16:44:52.804Z,16.92
2023-03-05T16:47:21.563Z,16.60
2023-03-05T16:49:48.226Z,15.48
2023-03-05T16:52:19.778Z,16.08
2023-03-05T16:54:48.299Z,18.67
2023-03-05T16:57:15.347Z,17.88
2023-03-05T16:59:43.429Z,19.02
2023-03-05T17:02:12.640Z,19.65
2023-03-05T17:04:39.253Z,16.90
2023-03-05T17:07:06.076Z,22.20
2023-03-05T17:09:33.182Z,20.92
2023-03-05T17:12:00.176Z,17.13
2023-03-05T17:14:26.995Z,24.88
2023-03-05T17:16:54.122Z,16.73
2023-03-05T17:19:20.826Z,17.20
2023-03-05T17:21:50.628Z,16.05
2023-03-05T17:24:22.600Z,18.98
2023-03-05T17:26:50.006Z,15.07
2023-03-05T17:29:16.802Z,20.35
2023-03-05T17:31:43.743Z,20.52
2023-03-05T17:34:10.488Z,31.20
2023-03-05T17:36:39.232Z,18.48
2023-03-05T17:39:06.013Z,18.15
2023-03-05T17:41:32.704Z,18.90
2023-03-05T17:43:59.451Z,16.98
2023-03-05T17:46:26.285Z,15.80
2023-03-05T17:48:52.935Z,17.98
2023-03-05T17:51:21.239Z,16.23
2023-03-05T17:53:48.113Z,14.45
2023-03-05T17:56:17.098Z,18.15
2023-03-05T17:58:45.838Z,15.80
2023-03-05T18:01:12.731Z,16.55
2023-03-05T18:03:39.477Z,19.85
2023-03-05T18:06:06.328Z,16.73
2023-03-05T18:08:32.981Z,17.95
2023-03-05T18:10:59.630Z,16.73
2023-03-05T18:13:26.388Z,16.90
2023-03-05T18:15:53.054Z,17.13
2023-03-05T18:18:19.811Z,17.63
2023-03-05T18:20:48.535Z,17.90
2023-03-05T18:23:15.509Z,17.05
2023-03-05T18:25:42.472Z,23.92
2023-03-05T18:28:16.466Z,22.83
2023-03-05T18:30:45.091Z,23.35
2023-03-05T18:33:19.598Z,22.52
2023-03-05T18:35:49.710Z,23.67
2023-03-05T18:38:16.349Z,20.85
2023-03-05T18:40:43.720Z,22.52
2023-03-05T18:43:10.553Z,20.00
2023-03-05T18:45:37.247Z,24.65
2023-03-05T18:48:03.945Z,23.20
2023-03-05T18:50:30.981Z,26.10
2023-03-05T18:52:57.710Z,26.52
2023-03-05T18:55:27.407Z,24.92
2023-03-05T18:57:54.686Z,24.50
2023-03-05T19:00:27.377Z,27.88
2023-03-05T19:02:55.264Z,22.55
2023-03-05T19:05:22.888Z,19.40
2023-03-05T19:07:49.660Z,24.30
2023-03-05T19:10:17.569Z,29.95
2023-03-05T19:13:05.601Z,25.52
2023-03-05T19:15:32.715Z,26.45
2023-03-05T19:17:59.850Z,23.70
2023-03-05T19:20:26.496Z,22.67
2023-03-05T19:22:55.721Z,23.98
2023-03-05T19:25:22.779Z,24.00
2023-03-05T19:27:49.411Z,20.83
2023-03-05T19:30:16.618Z,20.08
2023-03-05T19:32:43.454Z,23.25
2023-03-05T19:35:15.080Z,25.00
2023-03-05T19:37:41.969Z,22.52
2023-03-05T19:40:11.864Z,26.33
2023-03-05T19:42:39.081Z,26.27
2023-03-05T19:45:07.152Z,22.08
2023-03-05T19:47:34.308Z,26.75
2023-03-05T19:50:01.042Z,23.08
2023-03-05T19:52:27.849Z,22.13
2023-03-05T19:54:54.612Z,20.63
2023-03-05T19:57:23.359Z,25.17
2023-03-05T19:59:53.850Z,23.85
2023-03-05T20:02:21.863Z,23.95
2023-03-05T20:04:49.556Z,22.55
2023-03-05T20:07:16.562Z,23.67
2023-03-05T20:09:43.236Z,23.90
2023-03-05T20:12:15.004Z,24.77
2023-03-05T20:14:41.594Z,21.75
2023-03-05T20:17:08.264Z,22.88
2023-03-05T20:19:35.018Z,23.52
2023-03-05T20:22:01.718Z,26.73
2023-03-05T20:24:28.365Z,23.40
2023-03-05T20:26:55.137Z,24.40
2023-03-05T20:29:21.918Z,25.00
2023-03-05T20:31:50.013Z,29.83
2023-03-05T20:34:18.519Z,33.47
2023-03-05T20:36:47.285Z,26.85
2023-03-05T20:39:16.128Z,29.55
2023-03-05T20:41:42.820Z,29.27
2023-03-05T20:44:11.306Z,25.83
2023-03-05T20:46:45.223Z,26.42
2023-03-05T20:49:13.852Z,32.72
2023-03-05T20:51:40.461Z,27.75
2023-03-05T20:54:11.019Z,32.83
2023-03-05T20:56:38.536Z,25.92
2023-03-05T20:59:08.541Z,27.73
2023-03-05T21:01:37.314Z,23.70
2023-03-05T21:04:04.298Z,29.35
2023-03-05T21:06:33.197Z,28.08
2023-03-05T21:09:00.097Z,27.17
2023-03-05T21:11:27.563Z,33.25
2023-03-05T21:13:54.234Z,30.58
2023-03-05T21:16:23.694Z,27.08
2023-03-05T21:18:51.305Z,31.42
2023-03-05T21:21:18.387Z,32.83
2023-03-05T21:23:46.082Z,30.20
2023-03-05T21:26:13.588Z,29.02
2023-03-05T21:28:40.807Z,30.08
2023-03-05T21:31:10.686Z,31.15
2023-03-05T21:33:37.936Z,32.40
2023-03-05T21:36:05.104Z,30.10
2023-03-05T21:38:33.925Z,30.75
2023-03-05T21:41:01.913Z,28.15
2023-03-05T21:43:31.204Z,30.75
2023-03-05T21:45:59.860Z,26.63
2023-03-05T21:48:26.622Z,25.67
2023-03-05T21:50:54.708Z,24.27
2023-03-05T21:53:21.909Z,23.88
2023-03-05T21:55:57.968Z,24.67
2023-03-05T21:58:24.807Z,22.13
2023-03-05T22:00:51.548Z,24.10
2023-03-05T22:03:18.370Z,22.70
2023-03-05T22:05:45.438Z,20.85
2023-03-05T22:08:12.005Z,20.42
2023-03-05T22:10:40.960Z,20.73
2023-03-05T22:13:11.778Z,19.45
2023-03-05T22:15:48.909Z,17.17
2023-03-05T22:18:18.888Z,18.45
2023-03-05T22:20:51.167Z,18.45
2023-03-05T22:23:19.349Z,17.95
2023-03-05T22:25:45.995Z,17.35
2023-03-05T22:28:13.447Z,18.38
2023-03-05T22:30:44.753Z,17.23
2023-03-05T22:33:12.178Z,18.88
2023-03-05T22:35:42.374Z,18.10
2023-03-05T22:38:10.030Z,19.55
2023-03-05T22:40:40.145Z,20.65
2023-03-05T22:43:06.763Z,18.75
2023-03-05T22:45:33.503Z,23.20
2023-03-05T22:48:05.888Z,18.67
2023-03-05T22:50:32.656Z,18.20
2023-03-05T22:52:59.637Z,20.40
2023-03-05T22:55:26.327Z,19.58
2023-03-05T22:57:53.310Z,18.13
2023-03-05T23:00:23.472Z,19.27
2023-03-05T23:02:51.500Z,20.45
2023-03-05T23:05:19.129Z,18.83
2023-03-05T23:07:46.231Z,19.35
2023-03-05T23:10:26.932Z,20.83
2023-03-05T23:12:55.239Z,20.30
2023-03-05T23:15:26.524Z,19.13
2023-03-05T23:17:53.468Z,20.10
2023-03-05T23:20:23.181Z,20.08
2023-03-05T23:22:52.743Z,20.73
2023-03-05T23:25:20.511Z,21.17
2023-03-05T23:27:47.241Z,19.10
2023-03-05T23:30:37.265Z,22.25
2023-03-05T23:33:07.098Z,19.27
2023-03-05T23:35:37.185Z,21.00
2023-03-05T23:38:09.421Z,20.95
2023-03-05T23:40:39.901Z,19.35
2023-03-05T23:43:06.733Z,22.00
2023-03-05T23:45:33.839Z,20.25
2023-03-05T23:48:00.631Z,21.52
2023-03-05T23:50:32.982Z,20.48
2023-03-05T23:53:02.182Z,20.73
2023-03-05T23:55:52.287Z,22.70
2023-03-05T23:58:20.453Z,22.35
